createdAt,value
2022-10-19T00:05:31.964Z,21.16
2022-10-19T00:12:17.436Z,21.25
2022-10-19T00:19:09.100Z,20.98
2022-10-19T00:26:01.115Z,20.84
2022-10-19T00:32:46.579Z,20.74
2022-10-19T00:39:34.559Z,20.67
2022-10-19T00:46:19.945Z,20.71
2022-10-19T00:53:06.458Z,20.70
2022-10-19T00:59:55.115Z,20.66
2022-10-19T01:06:42.055Z,20.67
2022-10-19T01:13:44.275Z,20.70
2022-10-19T01:20:59.884Z,20.78
2022-10-19T01:28:03.195Z,20.86
2022-10-19T01:34:57.580Z,20.91
2022-10-19T01:41:52.848Z,20.94
2022-10-19T01:48:41.973Z,20.99
2022-10-19T01:55:31.000Z,20.95
2022-10-19T02:02:18.593Z,20.98
2022-10-19T02:09:04.039Z,21.02
2022-10-19T02:15:57.440Z,20.75
2022-10-19T02:22:43.569Z,20.97
2022-10-19T02:29:29.033Z,20.91
2022-10-19T02:36:17.174Z,20.87
2022-10-19T02:43:08.576Z,20.85
2022-10-19T03:03:44.682Z,20.58
2022-10-19T03:10:30.045Z,20.45
2022-10-19T03:17:15.675Z,20.36
2022-10-19T03:24:04.841Z,20.31
2022-10-19T03:30:52.177Z,20.30
2022-10-19T03:37:37.709Z,20.30
2022-10-19T03:44:25.726Z,20.25
2022-10-19T03:51:13.439Z,20.32
2022-10-19T03:57:58.784Z,20.42
2022-10-19T04:04:46.733Z,20.46
2022-10-19T04:11:35.125Z,20.46
2022-10-19T04:18:20.530Z,20.50
2022-10-19T04:25:14.021Z,20.42
2022-10-19T04:31:59.416Z,20.39
2022-10-19T04:38:44.947Z,20.26
2022-10-19T04:45:33.019Z,20.42
2022-10-19T04:52:19.013Z,20.54
2022-10-19T04:59:04.968Z,20.73
2022-10-19T05:05:53.637Z,20.82
2022-10-19T05:12:40.075Z,20.87
2022-10-19T05:19:25.469Z,20.89
2022-10-19T05:26:17.369Z,20.94
2022-10-19T05:33:03.110Z,21.10
2022-10-19T05:39:48.513Z,20.42
2022-10-19T05:46:37.590Z,20.87
2022-10-19T05:53:22.977Z,20.71
2022-10-19T06:00:09.756Z,20.68
2022-10-19T06:06:59.753Z,20.61
2022-10-19T06:13:47.426Z,20.59
2022-10-19T06:20:32.777Z,20.46
2022-10-19T06:27:20.794Z,20.56
2022-10-19T06:34:06.887Z,20.50
2022-10-19T06:40:52.261Z,20.40
2022-10-19T06:47:40.907Z,20.02
2022-10-19T06:54:26.825Z,20.10
2022-10-19T07:01:15.495Z,19.75
2022-10-19T07:08:03.610Z,20.09
2022-10-19T07:14:49.040Z,20.09
2022-10-19T07:21:40.779Z,20.00
2022-10-19T07:28:28.787Z,19.77
2022-10-19T07:35:14.160Z,19.84
2022-10-19T07:41:59.474Z,19.75
2022-10-19T07:48:48.332Z,19.68
2022-10-19T07:55:33.680Z,19.66
2022-10-19T08:02:20.998Z,19.64
2022-10-19T08:09:11.311Z,19.59
2022-10-19T08:16:01.005Z,19.44
2022-10-19T08:22:46.921Z,19.49
2022-10-19T08:29:35.163Z,19.47
2022-10-19T08:36:21.781Z,19.51
2022-10-19T08:43:18.756Z,19.53
2022-10-19T08:50:18.033Z,19.53
2022-10-19T08:57:15.801Z,19.54
2022-10-19T09:04:07.753Z,19.63
2022-10-19T09:10:57.880Z,19.12
2022-10-19T09:17:43.229Z,19.76
2022-10-19T09:24:36.852Z,19.87
2022-10-19T09:31:31.834Z,20.04
2022-10-19T09:38:19.881Z,20.29
2022-10-19T09:45:16.527Z,20.45
2022-10-19T09:52:04.737Z,20.73
2022-10-19T09:58:54.860Z,20.92
2022-10-19T10:05:42.584Z,21.12
2022-10-19T10:12:31.013Z,21.22
2022-10-19T10:19:22.237Z,21.20
2022-10-19T10:26:19.483Z,21.16
2022-10-19T10:33:16.021Z,21.06
2022-10-19T10:40:25.095Z,20.75
2022-10-19T10:47:20.467Z,21.02
2022-10-19T10:54:27.700Z,21.01
2022-10-19T11:01:23.742Z,21.00
2022-10-19T11:08:23.968Z,20.96
2022-10-19T11:15:23.841Z,20.98
2022-10-19T11:22:24.954Z,21.12
2022-10-19T11:29:46.576Z,21.24
2022-10-19T11:36:51.841Z,21.31
2022-10-19T11:43:49.357Z,21.39
2022-10-19T11:50:53.863Z,21.36
2022-10-19T11:57:55.830Z,21.35
2022-10-19T12:04:55.393Z,20.95
2022-10-19T12:11:59.804Z,21.51
2022-10-19T12:18:52.238Z,21.16
2022-10-19T12:25:40.961Z,21.28
2022-10-19T12:32:28.594Z,21.28
2022-10-19T12:39:27.686Z,21.25
2022-10-19T12:46:27.215Z,20.30
2022-10-19T13:00:38.110Z,21.17
2022-10-19T13:07:24.445Z,21.13
2022-10-19T13:14:15.680Z,21.31
2022-10-19T13:21:03.900Z,21.12
2022-10-19T13:27:50.640Z,21.09
2022-10-19T13:34:36.215Z,21.05
2022-10-19T13:41:27.847Z,21.01
2022-10-19T13:48:24.841Z,20.93
2022-10-19T13:55:46.559Z,20.84
2022-10-19T14:03:06.627Z,20.85
2022-10-19T14:10:13.418Z,20.49
2022-10-19T14:17:03.857Z,20.92
2022-10-19T14:23:53.245Z,21.01
2022-10-19T14:30:40.036Z,20.30
2022-10-19T14:37:28.715Z,21.01
2022-10-19T14:44:39.738Z,21.08
2022-10-19T14:51:37.958Z,20.85
2022-10-19T14:58:27.157Z,21.01
2022-10-19T15:05:24.775Z,20.93
2022-10-19T15:12:16.579Z,21.05
2022-10-19T15:19:07.408Z,21.07
2022-10-19T15:26:09.667Z,20.95
2022-10-19T15:33:17.680Z,20.86
2022-10-19T15:40:03.066Z,20.82
2022-10-19T15:47:18.884Z,20.81
2022-10-19T15:54:06.497Z,20.77
2022-10-19T16:00:51.956Z,20.73
2022-10-19T16:07:43.383Z,20.64
2022-10-19T16:14:31.960Z,20.54
2022-10-19T16:21:22.230Z,20.42
2022-10-19T16:28:10.265Z,20.23
2022-10-19T16:34:55.647Z,19.80
2022-10-19T16:41:41.071Z,20.11
2022-10-19T16:48:29.169Z,20.00
2022-10-19T16:55:15.142Z,19.98
2022-10-19T17:02:00.525Z,19.99
2022-10-19T17:09:29.921Z,20.07
2022-10-19T17:15:55.805Z,20.08
2022-10-19T17:22:41.112Z,20.11
2022-10-19T17:29:29.128Z,20.18
2022-10-19T17:36:18.895Z,19.61
2022-10-19T17:43:05.051Z,20.19
2022-10-19T17:49:53.073Z,20.12
2022-10-19T17:56:41.794Z,19.93
2022-10-19T18:03:28.792Z,19.81
2022-10-19T18:10:16.804Z,19.68
2022-10-19T18:17:03.303Z,19.74
2022-10-19T18:23:49.037Z,19.85
2022-10-19T18:30:39.225Z,19.86
2022-10-19T18:37:24.613Z,19.85
2022-10-19T18:44:13.922Z,19.97
2022-10-19T18:51:06.801Z,19.83
2022-10-19T18:57:52.187Z,19.85
2022-10-19T19:04:39.513Z,19.55
2022-10-19T19:11:31.740Z,19.45
2022-10-19T19:18:19.773Z,19.38
2022-10-19T19:25:05.229Z,19.24
2022-10-19T19:31:53.495Z,19.47
2022-10-19T19:38:39.623Z,19.40
2022-10-19T19:45:24.976Z,19.33
2022-10-19T19:52:13.142Z,19.17
2022-10-19T19:59:00.119Z,19.09
2022-10-19T20:05:46.817Z,19.11
2022-10-19T20:12:34.803Z,19.18
2022-10-19T20:19:20.224Z,19.12
2022-10-19T20:26:09.022Z,19.14
2022-10-19T20:32:59.737Z,19.00
2022-10-19T20:39:45.098Z,18.98
2022-10-19T20:46:32.561Z,18.87
2022-10-19T20:53:20.595Z,18.67
2022-10-19T21:00:06.345Z,18.39
2022-10-19T21:06:53.510Z,17.86
2022-10-19T21:13:41.509Z,18.36
2022-10-19T21:20:26.868Z,18.27
2022-10-19T21:27:14.200Z,18.24
2022-10-19T21:34:02.212Z,18.11
2022-10-19T21:40:47.589Z,18.13
2022-10-19T21:47:33.437Z,18.13
2022-10-19T21:54:24.843Z,18.10
2022-10-19T22:01:11.587Z,18.09
2022-10-19T22:07:56.766Z,18.32
2022-10-19T22:14:45.315Z,18.06
2022-10-19T22:21:33.115Z,18.18
2022-10-19T22:28:18.523Z,18.16
2022-10-19T22:35:07.946Z,18.20
2022-10-19T22:41:53.315Z,18.19
2022-10-19T22:48:38.689Z,18.14
2022-10-19T22:55:26.649Z,18.12
2022-10-19T23:02:12.012Z,17.79
2022-10-19T23:08:57.798Z,18.11
2022-10-19T23:15:46.106Z,18.02
2022-10-19T23:22:31.460Z,18.01
2022-10-19T23:29:17.453Z,17.48
2022-10-19T23:36:11.173Z,17.58
2022-10-19T23:42:56.537Z,17.46
2022-10-19T23:49:41.939Z,17.42
2022-10-19T23:56:32.565Z,17.39
